Time;durP1;ratioP1;P1;durP2;ratioP2;P2;SDS_P1;SDS_P2;PMS_P1;PMS_P2;Temp;Humidity;BMP_temperature;BMP_pressure;BME280_temperature;BME280_humidity;BME280_pressure;Samples;Min_cycle;Max_cycle;Signal;HPM_P1;HPM_P2
2021/04/10 00:00:47;;;;;;;13.70;9.73;;;;;;;7.53;73.65;101297.00;5115491;28;20024;-42
2021/04/10 00:03:12;;;;;;;14.10;9.27;;;;;;;7.56;73.66;101299.28;5114599;28;20024;-41
2021/04/10 00:05:38;;;;;;;15.50;10.25;;;;;;;7.57;74.35;101297.44;5114267;28;20027;-42
2021/04/10 00:08:04;;;;;;;18.27;11.13;;;;;;;7.58;74.32;101293.72;5114538;28;20028;-42
2021/04/10 00:10:30;;;;;;;11.77;9.57;;;;;;;7.60;74.00;101294.34;5114983;28;20024;-42
2021/04/10 00:12:55;;;;;;;;;;;;;;;7.65;72.47;101297.25;5114495;28;20027;-42
2021/04/10 00:15:21;;;;;;;15.43;10.77;;;;;;;7.44;74.58;101282.88;5114705;28;20339;-42
2021/04/10 00:17:46;;;;;;;16.83;10.98;;;;;;;7.31;75.53;101284.69;5114331;28;20028;-42
2021/04/10 00:20:17;;;;;;;17.27;11.43;;;;;;;7.17;76.07;101289.13;5114570;28;20479;-42
2021/04/10 00:22:43;;;;;;;14.75;11.10;;;;;;;7.19;75.54;101284.41;5114548;28;20028;-42
2021/04/10 00:25:10;;;;;;;15.00;11.63;;;;;;;7.22;75.82;101295.63;5114382;28;20034;-42
2021/04/10 00:27:36;;;;;;;16.30;11.80;;;;;;;7.15;76.33;101299.28;5113445;28;20024;-42
2021/04/10 00:30:03;;;;;;;13.48;10.57;;;;;;;7.23;75.75;101299.13;5114357;28;20027;-42
2021/04/10 00:32:29;;;;;;;16.30;11.23;;;;;;;7.19;76.21;101296.00;5113917;28;20123;-42
2021/04/10 00:34:54;;;;;;;15.33;11.17;;;;;;;7.20;76.10;101299.50;5114306;28;20063;-42
2021/04/10 00:37:19;;;;;;;15.50;11.83;;;;;;;7.10;76.43;101304.41;5114156;28;20460;-42
2021/04/10 00:39:45;;;;;;;19.23;11.90;;;;;;;7.14;76.26;101303.00;5114286;28;20116;-42
2021/04/10 00:42:10;;;;;;;16.63;11.43;;;;;;;7.03;76.56;101298.16;5113762;28;20023;-42
2021/04/10 00:44:35;;;;;;;16.10;10.97;;;;;;;6.98;77.20;101296.06;5113334;28;20051;-42
2021/04/10 00:47:01;;;;;;;17.53;11.43;;;;;;;6.90;77.24;101298.91;5113889;28;20038;-42
2021/04/10 00:49:27;;;;;;;15.03;10.90;;;;;;;6.96;77.22;101301.63;5113641;28;20024;-42
2021/04/10 00:51:53;;;;;;;;;;;;;;;7.00;75.97;101307.47;5113930;28;20027;-42
2021/04/10 00:54:19;;;;;;;14.57;9.80;;;;;;;6.86;76.79;101298.47;5113903;28;19912;-42
2021/04/10 00:56:44;;;;;;;15.65;10.05;;;;;;;6.74;77.03;101294.66;5114328;28;20059;-42
2021/04/10 00:59:09;;;;;;;16.90;10.10;;;;;;;6.60;77.60;101290.19;5113880;28;20031;-42
2021/04/10 01:01:35;;;;;;;13.33;8.93;;;;;;;6.59;77.66;101301.97;5113819;28;20422;-42
2021/04/10 01:04:00;;;;;;;16.10;9.10;;;;;;;6.59;77.77;101296.59;5114519;28;20077;-42
2021/04/10 01:06:26;;;;;;;15.03;9.20;;;;;;;6.53;78.58;101297.34;5114348;28;20023;-41
2021/04/10 01:08:52;;;;;;;14.00;9.20;;;;;;;6.51;78.07;101302.09;5113663;28;20471;-41
2021/04/10 01:11:38;;;;;;;12.77;8.98;;;;;;;6.54;78.36;101296.31;5113655;28;20272;-41
2021/04/10 01:14:30;;;;;;;13.90;9.50;;;;;;;6.47;78.58;101290.91;5113946;28;20061;-41
2021/04/10 01:17:01;;;;;;;15.07;9.15;;;;;;;6.48;79.37;101291.72;5114223;28;20077;-41
2021/04/10 01:19:47;;;;;;;12.88;8.38;;;;;;;6.58;77.93;101295.75;5113933;28;20023;-41
2021/04/10 01:22:30;;;;;;;13.70;7.95;;;;;;;6.59;78.34;101297.44;5114134;28;20313;-41
2021/04/10 01:25:06;;;;;;;15.98;8.35;;;;;;;6.55;78.06;101284.56;5113765;28;20445;-41
2021/04/10 01:27:38;;;;;;;16.13;8.55;;;;;;;6.45;78.28;101288.41;5113504;28;20024;-42
2021/04/10 01:30:20;;;;;;;14.90;7.70;;;;;;;6.25;78.81;101279.34;5113789;28;20085;-41
2021/04/10 01:33:01;;;;;;;10.68;6.55;;;;;;;6.40;78.44;101280.09;5113771;28;20515;-42
2021/04/10 01:35:35;;;;;;;10.25;5.82;;;;;;;6.27;77.62;101285.34;5113456;28;20479;-41
2021/04/10 01:38:02;;;;;;;13.15;6.15;;;;;;;6.14;77.86;101282.53;5113452;28;20088;-41
2021/04/10 01:40:31;;;;;;;17.95;5.88;;;;;;;6.16;78.28;101288.53;5113777;28;20510;-41
2021/04/10 01:42:58;;;;;;;12.52;6.30;;;;;;;6.14;77.52;101288.72;5113427;28;20055;-41
2021/04/10 01:45:26;;;;;;;12.27;5.40;;;;;;;6.16;77.83;101293.91;5112336;28;20047;-41
2021/04/10 01:47:53;;;;;;;9.77;4.88;;;;;;;6.13;77.67;101296.97;5114605;28;20115;-41
2021/04/10 01:50:19;;;;;;;10.65;4.95;;;;;;;6.14;77.86;101298.63;5115669;28;20057;-41
2021/04/10 01:52:47;;;;;;;11.35;4.72;;;;;;;6.18;77.40;101294.53;5117112;28;20024;-41
2021/04/10 01:55:13;;;;;;;9.52;5.00;;;;;;;6.18;77.26;101311.47;5117626;28;20107;-41
2021/04/10 01:57:38;;;;;;;;;;;;;;;6.28;76.57;101305.81;5117250;28;20055;-41
2021/04/10 02:00:07;;;;;;;9.25;4.28;;;;;;;6.23;76.20;101310.09;5116766;28;20440;-41
2021/04/10 02:02:41;;;;;;;13.93;4.45;;;;;;;6.18;76.86;101295.38;5115204;28;20043;-41
2021/04/10 02:05:10;;;;;;;13.57;4.43;;;;;;;6.07;76.61;101293.19;5117638;27;20019;-41
2021/04/10 02:07:38;;;;;;;11.38;4.63;;;;;;;6.10;77.06;101297.34;5117248;28;20024;-41
2021/04/10 02:10:06;;;;;;;9.80;4.22;;;;;;;6.08;77.41;101300.22;5116780;28;20028;-41
2021/04/10 02:12:32;;;;;;;11.63;4.40;;;;;;;6.10;77.55;101295.50;5116835;28;20023;-41
2021/04/10 02:14:58;;;;;;;;;;;;;;;6.16;76.52;101301.97;5118039;28;20051;-41
2021/04/10 02:17:23;;;;;;;10.55;4.35;;;;;;;6.12;77.21;101296.16;5116764;28;19938;-41
2021/04/10 02:19:50;;;;;;;6.97;3.93;;;;;;;6.10;77.51;101300.88;5117129;28;20028;-41
2021/04/10 02:22:16;;;;;;;14.00;4.85;;;;;;;6.13;77.90;101305.84;5116119;28;20020;-41
2021/04/10 02:24:43;;;;;;;12.18;4.57;;;;;;;6.08;77.49;101310.13;5116311;28;20114;-41
2021/04/10 02:27:08;;;;;;;12.18;5.10;;;;;;;6.00;77.53;101311.06;5116383;28;20039;-41
2021/04/10 02:29:34;;;;;;;11.20;4.85;;;;;;;6.03;78.00;101307.19;5116743;28;20442;-41
2021/04/10 02:32:07;;;;;;;10.50;5.30;;;;;;;5.98;77.84;101314.97;5116241;28;20028;-41
2021/04/10 02:34:41;;;;;;;14.32;5.00;;;;;;;5.86;78.44;101320.00;5116521;28;20268;-41
2021/04/10 02:37:08;;;;;;;11.10;4.63;;;;;;;5.90;78.75;101316.75;5116577;28;20106;-41
2021/04/10 02:39:34;;;;;;;;;;;;;;;5.97;77.46;101321.38;5116313;28;20023;-41
2021/04/10 02:42:04;;;;;;;13.65;5.28;;;;;;;5.92;78.12;101322.78;5116948;28;19908;-41
2021/04/10 02:44:51;;;;;;;11.63;5.10;;;;;;;5.98;77.81;101313.13;5116468;27;20376;-41
2021/04/10 02:47:20;;;;;;;10.05;4.13;;;;;;;5.88;77.99;101312.56;5116190;28;20023;-41
2021/04/10 02:49:51;;;;;;;12.63;4.72;;;;;;;5.87;78.19;101313.59;5116635;28;20085;-41
2021/04/10 02:52:25;;;;;;;8.43;4.28;;;;;;;5.79;77.88;101311.00;5115962;28;20115;-41
2021/04/10 02:54:51;;;;;;;13.05;4.68;;;;;;;5.79;78.01;101319.88;5115965;28;20032;-41
2021/04/10 02:57:18;;;;;;;12.15;4.60;;;;;;;5.83;77.89;101315.00;5114357;28;20475;-41
2021/04/10 02:59:48;;;;;;;10.45;4.07;;;;;;;5.83;77.63;101320.34;5115117;28;20368;-41
2021/04/10 03:02:14;;;;;;;8.15;3.50;;;;;;;5.93;77.11;101323.59;5115394;28;20039;-41
2021/04/10 03:04:41;;;;;;;17.08;5.07;;;;;;;5.84;77.35;101330.06;5115625;28;20027;-41
2021/04/10 03:07:08;;;;;;;9.50;3.70;;;;;;;5.83;77.87;101323.03;5115702;28;20102;-41
2021/04/10 03:09:36;;;;;;;13.30;3.80;;;;;;;5.76;77.90;101319.44;5115958;28;20031;-42
2021/04/10 03:12:02;;;;;;;10.32;3.50;;;;;;;5.82;77.27;101322.22;5115536;27;20115;-41
2021/04/10 03:14:28;;;;;;;;;;;;;;;5.84;77.46;101317.47;5116250;28;20052;-41
2021/04/10 03:16:55;;;;;;;8.35;4.00;;;;;;;5.84;77.58;101330.06;5115364;28;20048;-41
2021/04/10 03:19:22;;;;;;;9.63;3.70;;;;;;;5.78;77.59;101326.28;5114152;28;20123;-42
2021/04/10 03:21:47;;;;;;;9.82;4.15;;;;;;;5.81;77.61;101317.03;5113698;28;20100;-41
2021/04/10 03:24:13;;;;;;;10.60;4.78;;;;;;;5.76;77.65;101309.56;5115818;27;20114;-41
2021/04/10 03:26:39;;;;;;;11.45;3.70;;;;;;;5.75;77.66;101321.28;5115823;28;20024;-41
2021/04/10 03:29:05;;;;;;;10.27;3.78;;;;;;;5.81;77.46;101323.25;5115403;28;20028;-41
2021/04/10 03:31:33;;;;;;;11.50;3.60;;;;;;;5.71;78.40;101325.38;5115683;28;20024;-42
2021/04/10 03:33:59;;;;;;;7.70;3.50;;;;;;;5.79;77.76;101327.94;5114809;28;20464;-41
2021/04/10 03:36:25;;;;;;;10.90;3.65;;;;;;;5.72;77.39;101327.03;5115120;28;20031;-41
2021/04/10 03:38:51;;;;;;;10.88;3.72;;;;;;;5.75;77.47;101333.88;5114988;28;20031;-41
2021/04/10 03:41:16;;;;;;;9.67;3.27;;;;;;;5.77;77.03;101329.16;5114777;28;20433;-41
2021/04/10 03:43:42;;;;;;;7.90;3.60;;;;;;;5.66;77.44;101328.63;5115101;28;20268;-41
2021/04/10 03:46:08;;;;;;;13.83;3.97;;;;;;;5.66;77.63;101330.44;5114609;28;20102;-41
2021/04/10 03:48:33;;;;;;;11.38;3.67;;;;;;;5.76;77.41;101341.75;5114775;28;20027;-41
2021/04/10 03:50:59;;;;;;;10.93;3.63;;;;;;;5.72;77.63;101335.09;5115135;28;20028;-41
2021/04/10 03:53:24;;;;;;;;;;;;;;;5.81;77.08;101342.03;5115361;28;20443;-41
2021/04/10 03:55:50;;;;;;;8.68;3.20;;;;;;;5.83;77.07;101342.66;5114679;28;19908;-41
2021/04/10 03:58:15;;;;;;;9.93;3.53;;;;;;;5.77;76.88;101339.91;5114636;28;20032;-41
2021/04/10 04:00:41;;;;;;;7.67;3.30;;;;;;;5.71;77.67;101337.94;5114859;28;20064;-41
2021/04/10 04:03:06;;;;;;;10.03;3.63;;;;;;;5.77;77.35;101348.78;5114184;28;20058;-41
2021/04/10 04:05:31;;;;;;;14.23;4.20;;;;;;;5.72;77.55;101342.31;5114242;28;20475;-41
2021/04/10 04:07:57;;;;;;;8.40;3.70;;;;;;;5.75;77.50;101347.28;5114714;28;20490;-41
2021/04/10 04:10:23;;;;;;;7.03;3.72;;;;;;;5.63;78.14;101346.94;5114292;28;20027;-41
2021/04/10 04:12:49;;;;;;;7.65;3.78;;;;;;;5.67;77.86;101350.91;5114424;28;20030;-41
2021/04/10 04:15:17;;;;;;;9.83;3.60;;;;;;;5.68;77.72;101353.41;5115027;28;20044;-42
2021/04/10 04:17:42;;;;;;;13.23;4.28;;;;;;;5.65;77.82;101356.44;5114003;28;20036;-41
2021/04/10 04:20:08;;;;;;;8.93;3.37;;;;;;;5.66;77.46;101355.47;5114101;28;20476;-41
2021/04/10 04:22:34;;;;;;;8.25;3.70;;;;;;;5.63;77.88;101361.19;5114158;28;20034;-41
2021/04/10 04:24:59;;;;;;;9.68;3.88;;;;;;;5.65;77.94;101356.44;5113960;27;20051;-41
2021/04/10 04:27:25;;;;;;;12.20;3.90;;;;;;;5.66;78.08;101365.34;5113896;28;20055;-41
2021/04/10 04:29:52;;;;;;;11.13;3.60;;;;;;;5.76;77.40;101357.84;5114660;28;20032;-41
2021/04/10 04:32:20;;;;;;;9.55;4.05;;;;;;;5.77;77.53;101364.88;5114568;28;20420;-41
2021/04/10 04:34:45;;;;;;;11.25;3.85;;;;;;;5.76;77.68;101363.22;5114066;28;20028;-41
2021/04/10 04:37:10;;;;;;;8.87;4.30;;;;;;;5.75;77.42;101366.91;5113794;28;20110;-41
2021/04/10 04:39:36;;;;;;;8.93;3.63;;;;;;;5.81;77.43;101357.31;5114327;28;20463;-41
2021/04/10 04:42:01;;;;;;;13.13;4.00;;;;;;;5.76;77.63;101365.03;5113717;28;20494;-41
2021/04/10 04:44:28;;;;;;;9.00;4.40;;;;;;;5.78;77.43;101369.22;5114191;28;20024;-41
2021/04/10 04:46:53;;;;;;;7.90;3.58;;;;;;;5.73;77.23;101368.94;5113599;28;20354;-41
2021/04/10 04:49:19;;;;;;;7.68;3.60;;;;;;;5.73;77.51;101362.75;5114534;28;20085;-41
2021/04/10 04:51:44;;;;;;;11.40;4.07;;;;;;;5.64;77.69;101367.38;5113894;28;20024;-41
2021/04/10 04:54:09;;;;;;;11.13;3.90;;;;;;;5.66;77.75;101370.69;5114722;28;20038;-41
2021/04/10 04:56:35;;;;;;;9.00;3.83;;;;;;;5.57;78.10;101369.97;5113863;28;20027;-41
2021/04/10 04:59:00;;;;;;;13.30;3.80;;;;;;;5.55;78.16;101373.84;5113822;28;20028;-41
2021/04/10 05:01:25;;;;;;;9.77;3.90;;;;;;;5.57;78.18;101378.03;5112487;28;20047;-41
2021/04/10 05:03:51;;;;;;;11.43;4.40;;;;;;;5.45;78.08;101374.13;5113714;28;20469;-41
2021/04/10 05:06:16;;;;;;;9.03;3.73;;;;;;;5.51;78.14;101373.38;5113474;28;20020;-41
2021/04/10 05:08:41;;;;;;;9.33;4.20;;;;;;;5.43;78.82;101363.59;5114287;28;20035;-41
2021/04/10 05:11:07;;;;;;;12.40;5.03;;;;;;;5.37;79.48;101372.38;5114369;28;20023;-41
2021/04/10 05:13:32;;;;;;;10.70;4.47;;;;;;;5.40;79.30;101368.50;5113725;28;20051;-41
2021/04/10 05:15:58;;;;;;;10.90;4.80;;;;;;;5.33;79.16;101368.41;5113753;28;20266;-42
2021/04/10 05:18:23;;;;;;;10.03;4.57;;;;;;;5.21;79.89;101363.66;5113858;28;20049;-41
2021/04/10 05:20:49;;;;;;;11.30;4.47;;;;;;;5.19;80.29;101363.84;5113299;28;20103;-42
2021/04/10 05:23:22;;;;;;;12.67;4.80;;;;;;;5.24;79.92;101360.63;5115325;28;20107;-42
2021/04/10 05:25:49;;;;;;;8.27;4.65;;;;;;;5.29;79.97;101366.28;5117987;27;20606;-41
2021/04/10 05:28:15;;;;;;;10.10;4.70;;;;;;;5.22;79.80;101371.53;5117509;28;20034;-40
2021/04/10 05:30:40;;;;;;;8.88;4.78;;;;;;;5.24;80.08;101377.53;5118283;28;20028;-41
2021/04/10 05:33:05;;;;;;;10.27;4.83;;;;;;;5.15;80.41;101378.63;5117782;28;20020;-43
2021/04/10 05:35:31;;;;;;;8.17;4.70;;;;;;;5.24;80.71;101393.63;5117429;28;20111;-41
2021/04/10 05:37:56;;;;;;;14.43;5.33;;;;;;;5.17;80.93;101392.69;5117138;28;20066;-41
2021/04/10 05:40:22;;;;;;;9.23;5.13;;;;;;;5.21;80.81;101393.16;5117454;28;20474;-43
2021/04/10 05:42:47;;;;;;;9.27;5.07;;;;;;;5.32;80.25;101395.38;5118130;28;20031;-41
2021/04/10 05:45:13;;;;;;;12.07;5.73;;;;;;;5.30;80.82;101398.25;5117884;28;20055;-41
2021/04/10 05:47:39;;;;;;;12.90;5.25;;;;;;;5.33;80.52;101400.59;5116967;28;20417;-41
2021/04/10 05:50:05;;;;;;;13.40;5.57;;;;;;;5.35;80.25;101397.72;5117165;28;20020;-41
2021/04/10 05:52:32;;;;;;;13.85;5.25;;;;;;;5.42;80.51;101404.84;5117039;28;20073;-42
2021/04/10 05:54:57;;;;;;;10.05;5.65;;;;;;;5.39;80.53;101404.38;5117366;28;20110;-42
2021/04/10 05:57:22;;;;;;;13.03;5.47;;;;;;;5.51;80.52;101396.69;5117090;27;20123;-42
2021/04/10 05:59:47;;;;;;;8.83;5.83;;;;;;;5.49;80.47;101399.56;5116589;28;20019;-42
2021/04/10 06:02:14;;;;;;;12.50;5.83;;;;;;;5.50;80.51;101405.78;5116590;28;20031;-41
2021/04/10 06:04:40;;;;;;;15.77;6.95;;;;;;;5.60;80.38;101414.38;5117537;28;20035;-42
2021/04/10 06:07:05;;;;;;;12.93;6.37;;;;;;;5.58;80.22;101419.94;5116485;28;20102;-41
2021/04/10 06:09:30;;;;;;;11.37;5.80;;;;;;;5.63;80.46;101420.22;5117356;27;20030;-42
2021/04/10 06:11:56;;;;;;;12.60;6.80;;;;;;;5.46;80.59;101413.34;5117089;28;20035;-41
2021/04/10 06:14:22;;;;;;;11.60;7.00;;;;;;;5.43;80.83;101414.56;5117234;28;20070;-41
2021/04/10 06:16:51;;;;;;;13.98;7.32;;;;;;;5.46;80.44;101412.50;5116630;27;20582;-42
2021/04/10 06:19:17;;;;;;;12.65;6.70;;;;;;;5.49;80.42;101414.84;5116951;28;20353;-42
2021/04/10 06:21:43;;;;;;;12.20;6.03;;;;;;;5.55;80.26;101411.41;5117155;28;20105;-42
2021/04/10 06:24:10;;;;;;;11.32;7.03;;;;;;;5.63;80.13;101411.34;5116623;28;20129;-42
2021/04/10 06:26:35;;;;;;;14.13;7.03;;;;;;;5.58;80.15;101413.75;5116409;27;20106;-40
2021/04/10 06:29:01;;;;;;;12.53;6.60;;;;;;;5.60;80.59;101414.38;5116855;28;20132;-42
2021/04/10 06:31:26;;;;;;;12.98;6.68;;;;;;;5.66;80.05;101410.94;5116312;28;20031;-41
2021/04/10 06:33:51;;;;;;;11.47;6.30;;;;;;;5.67;79.48;101413.47;5116155;28;20028;-41
2021/04/10 06:36:17;;;;;;;16.30;6.30;;;;;;;5.71;79.67;101411.25;5116823;27;20055;-41
2021/04/10 06:38:42;;;;;;;15.27;6.83;;;;;;;5.77;79.66;101410.50;5116282;28;20478;-42
2021/04/10 06:41:12;;;;;;;13.15;6.82;;;;;;;5.79;79.43;101416.50;5116180;28;20059;-42
2021/04/10 06:43:41;;;;;;;12.48;6.57;;;;;;;5.82;79.13;101432.25;5114414;28;20466;-42
2021/04/10 06:46:07;;;;;;;13.32;6.35;;;;;;;5.92;79.00;101440.06;5116032;28;20126;-42
2021/04/10 06:48:34;;;;;;;9.93;5.50;;;;;;;5.97;79.27;101447.56;5121067;27;20030;-42
2021/04/10 06:51:01;;;;;;;11.38;6.80;;;;;;;5.80;79.60;101438.81;5116587;27;20027;-42
2021/04/10 06:53:27;;;;;;;12.40;6.45;;;;;;;5.94;78.83;101438.00;5117285;27;20035;-43
2021/04/10 06:55:55;;;;;;;;;;;;;;;6.00;78.38;101431.06;5133747;27;20444;-44
2021/04/10 06:58:31;;;;;;;;;;;;;;;5.90;78.65;101442.03;5121755;27;19926;-44
2021/04/10 07:00:57;;;;;;;11.60;6.97;;;;;;;5.83;78.95;101451.88;5135846;27;19915;-44
2021/04/10 07:03:22;;;;;;;16.73;7.10;;;;;;;5.83;78.78;101444.66;5135510;27;20375;-44
2021/04/10 07:05:49;;;;;;;15.50;7.03;;;;;;;5.90;78.82;101437.53;5136213;27;20062;-44
2021/04/10 07:08:15;;;;;;;12.00;6.72;;;;;;;5.98;78.44;101442.00;5136722;27;20428;-44
2021/04/10 07:10:41;;;;;;;16.70;8.27;;;;;;;5.96;78.20;101438.66;5136107;27;20031;-43
2021/04/10 07:13:06;;;;;;;13.10;7.47;;;;;;;6.02;78.06;101440.59;5136514;27;20104;-44
2021/04/10 07:15:31;;;;;;;11.87;6.93;;;;;;;5.98;78.37;101443.84;5136959;27;20051;-44
2021/04/10 07:17:57;;;;;;;14.13;7.13;;;;;;;5.98;78.07;101451.91;5135847;27;20038;-44
2021/04/10 07:20:30;;;;;;;14.47;7.70;;;;;;;6.02;78.40;101450.50;5136783;27;20051;-44
2021/04/10 07:23:01;;;;;;;12.07;7.65;;;;;;;6.06;78.10;101443.75;5136200;27;20023;-44
2021/04/10 07:25:29;;;;;;;13.90;7.43;;;;;;;6.08;77.71;101452.44;5136426;27;20034;-44
2021/04/10 07:27:55;;;;;;;13.50;7.72;;;;;;;6.06;78.12;101452.63;5136076;27;20023;-43
2021/04/10 07:30:21;;;;;;;16.23;7.65;;;;;;;6.10;78.02;101458.44;5136136;27;20041;-43
2021/04/10 07:32:47;;;;;;;;;;;;;;;6.16;77.81;101455.88;5136168;27;20039;-43
2021/04/10 07:35:14;;;;;;;13.05;6.65;;;;;;;6.09;77.69;101452.25;5136223;27;19930;-43
2021/04/10 07:37:43;;;;;;;14.23;7.43;;;;;;;6.02;78.29;101459.41;5135574;27;20051;-43
2021/04/10 07:40:11;;;;;;;16.17;7.68;;;;;;;6.08;78.27;101460.50;5135576;27;20033;-43
2021/04/10 07:42:40;;;;;;;13.95;7.45;;;;;;;6.06;78.34;101458.00;5135973;27;20441;-43
2021/04/10 07:45:33;;;;;;;12.73;6.90;;;;;;;6.11;77.17;101460.13;5135507;27;20019;-43
2021/04/10 07:48:04;;;;;;;15.38;7.25;;;;;;;5.95;77.35;101463.81;5135694;27;20027;-43
2021/04/10 07:50:31;;;;;;;15.43;7.25;;;;;;;5.97;77.85;101453.75;5136224;27;20035;-43
2021/04/10 07:52:56;;;;;;;12.57;7.20;;;;;;;6.00;77.08;101453.38;5135286;27;20437;-43
2021/04/10 07:55:55;;;;;;;13.05;7.00;;;;;;;5.89;78.43;101454.63;5135573;27;20035;-43
2021/04/10 07:58:22;;;;;;;13.45;6.57;;;;;;;5.85;77.92;101452.50;5092189;28;20056;-43
2021/04/10 08:00:48;;;;;;;15.50;6.43;;;;;;;5.92;77.82;101461.53;5091911;28;20044;-43
2021/04/10 08:03:31;;;;;;;14.10;6.50;;;;;;;6.03;77.50;101453.00;5091795;28;20036;-43
2021/04/10 08:06:11;;;;;;;12.27;7.10;;;;;;;6.07;77.73;101470.41;5092567;28;20374;-43
2021/04/10 08:08:51;;;;;;;13.73;6.80;;;;;;;6.00;77.53;101458.72;5092307;28;20176;-42
2021/04/10 08:11:17;;;;;;;13.57;6.65;;;;;;;6.12;77.39;101464.47;5092508;28;20044;-43
2021/04/10 08:13:56;;;;;;;16.50;6.55;;;;;;;6.17;76.67;101467.44;5092164;28;20040;-43
2021/04/10 08:16:21;;;;;;;16.10;7.45;;;;;;;6.17;76.09;101467.44;5091909;28;20056;-43
2021/04/10 08:18:49;;;;;;;11.35;6.65;;;;;;;6.19;76.27;101473.44;5091587;28;20123;-43
2021/04/10 08:21:15;;;;;;;14.75;7.38;;;;;;;6.16;76.59;101460.41;5092312;28;20078;-42
2021/04/10 08:23:41;;;;;;;14.75;7.25;;;;;;;6.10;76.91;101463.81;5091915;28;20464;-43
2021/04/10 08:26:07;;;;;;;15.80;6.30;;;;;;;6.15;76.32;101462.25;5091622;28;20053;-43
2021/04/10 08:28:37;;;;;;;12.23;6.95;;;;;;;6.22;75.86;101467.72;5091713;28;20036;-43
2021/04/10 08:31:06;;;;;;;15.75;6.68;;;;;;;6.32;75.80;101462.88;5091534;28;20051;-43
2021/04/10 08:33:33;;;;;;;18.05;6.30;;;;;;;6.35;75.77;101453.63;5106233;27;20047;-43
2021/04/10 08:36:02;;;;;;;15.75;7.57;;;;;;;6.35;75.60;101454.47;5134385;27;20471;-43
2021/04/10 08:38:30;;;;;;;10.38;6.07;;;;;;;6.47;75.86;101454.78;5134816;27;20399;-43
2021/04/10 08:40:59;;;;;;;11.10;5.57;;;;;;;6.48;75.50;101459.13;5134542;27;20486;-43
2021/04/10 08:43:27;;;;;;;13.02;6.20;;;;;;;6.50;75.05;101453.59;5134215;27;20030;-43
2021/04/10 08:45:54;;;;;;;13.95;6.53;;;;;;;6.56;75.08;101447.44;5134481;27;20444;-43
2021/04/10 08:48:22;;;;;;;14.07;5.95;;;;;;;6.60;75.44;101454.13;5134139;27;20050;-43
2021/04/10 08:50:51;;;;;;;14.48;6.28;;;;;;;6.59;75.16;101450.59;5134175;27;20110;-43
2021/04/10 08:53:30;;;;;;;14.48;6.40;;;;;;;6.66;75.19;101447.97;5134965;27;20031;-43
2021/04/10 08:55:56;;;;;;;15.07;6.50;;;;;;;6.68;74.96;101445.91;5134051;27;20471;-43
2021/04/10 08:58:30;;;;;;;12.57;6.95;;;;;;;6.68;75.34;101451.28;5137949;27;20035;-43
2021/04/10 09:01:00;;;;;;;12.82;5.72;;;;;;;6.82;75.21;101458.47;5138665;27;20478;-43
2021/04/10 09:03:44;;;;;;;11.90;6.03;;;;;;;6.77;75.03;101462.75;5138704;27;20033;-43
2021/04/10 09:06:10;;;;;;;16.42;6.00;;;;;;;6.78;74.80;101465.25;5139449;27;20348;-43
2021/04/10 09:08:36;;;;;;;15.00;5.93;;;;;;;6.78;74.96;101462.56;5138234;27;20027;-43
2021/04/10 09:11:03;;;;;;;15.43;7.03;;;;;;;6.76;74.68;101463.78;5139130;27;20463;-43
2021/04/10 09:13:39;;;;;;;12.98;5.78;;;;;;;6.73;74.46;101467.69;5138922;27;20027;-43
2021/04/10 09:16:31;;;;;;;13.23;6.85;;;;;;;6.69;74.73;101466.41;5138833;27;20422;-43
2021/04/10 09:19:01;;;;;;;15.32;6.50;;;;;;;6.72;74.83;101466.03;5138026;27;20145;-43
2021/04/10 09:21:42;;;;;;;14.75;7.03;;;;;;;6.65;74.94;101465.13;5138522;27;20497;-43
2021/04/10 09:24:39;;;;;;;11.00;6.15;;;;;;;6.66;75.07;101466.78;5138171;27;20076;-43
2021/04/10 09:27:17;;;;;;;11.20;6.53;;;;;;;6.65;75.06;101463.28;5138213;27;20474;-43
2021/04/10 09:29:47;;;;;;;11.05;7.00;;;;;;;6.73;76.05;101473.06;5138417;27;20031;-43
2021/04/10 09:32:14;;;;;;;12.00;6.60;;;;;;;6.73;75.51;101459.63;5138662;27;20417;-42
2021/04/10 09:35:17;;;;;;;14.48;6.55;;;;;;;6.70;76.03;101460.00;5138382;27;20115;-42
2021/04/10 09:37:42;;;;;;;16.15;7.90;;;;;;;6.66;77.04;101469.47;5094744;28;20031;-43
2021/04/10 09:40:19;;;;;;;13.30;7.10;;;;;;;6.69;76.72;101469.09;5095227;28;20115;-42
2021/04/10 09:42:45;;;;;;;13.98;7.70;;;;;;;6.59;77.86;101458.66;5095155;28;20060;-43
2021/04/10 09:45:30;;;;;;;14.43;7.35;;;;;;;6.68;77.28;101460.19;5094428;28;20035;-42
2021/04/10 09:47:55;;;;;;;13.93;7.22;;;;;;;6.71;78.23;101458.97;5094718;28;20536;-43
2021/04/10 09:50:24;;;;;;;12.75;6.68;;;;;;;6.68;77.57;101462.03;5095001;28;20032;-42
2021/04/10 09:53:01;;;;;;;19.55;7.88;;;;;;;6.71;79.50;101462.50;5094926;28;20039;-43
2021/04/10 09:55:28;;;;;;;16.13;7.20;;;;;;;6.70;80.31;101462.69;5094589;28;20065;-43
2021/04/10 09:57:58;;;;;;;14.82;8.10;;;;;;;6.75;80.03;101452.22;5094282;28;20035;-42
2021/04/10 10:00:28;;;;;;;13.43;7.60;;;;;;;6.80;80.29;101455.16;5094644;28;20477;-43
2021/04/10 10:02:58;;;;;;;16.30;8.48;;;;;;;6.84;80.56;101450.25;5094244;28;20384;-43
2021/04/10 10:05:29;;;;;;;12.93;8.13;;;;;;;6.82;80.03;101449.59;5094749;28;20085;-42
2021/04/10 10:07:59;;;;;;;14.65;7.88;;;;;;;6.93;80.24;101455.28;5093920;28;20044;-43
2021/04/10 10:10:33;;;;;;;13.65;8.35;;;;;;;6.85;79.91;101450.03;5094347;28;20391;-43
2021/04/10 10:13:24;;;;;;;15.85;8.68;;;;;;;6.92;81.16;101439.34;5111798;27;20039;-43
2021/04/10 10:15:52;;;;;;;15.23;8.02;;;;;;;6.84;80.68;101434.09;5137859;27;20157;-43
2021/04/10 10:18:21;;;;;;;17.20;8.90;;;;;;;6.86;79.99;101446.31;5137523;27;20466;-43
2021/04/10 10:21:08;;;;;;;14.07;8.07;;;;;;;6.95;80.56;101447.84;5137428;27;20489;-43
2021/04/10 10:23:36;;;;;;;15.00;9.20;;;;;;;6.80;80.34;101438.19;5137364;27;20054;-42
2021/04/10 10:26:07;;;;;;;12.98;7.90;;;;;;;6.76;80.75;101448.50;5137806;27;20131;-42
2021/04/10 10:28:35;;;;;;;12.98;8.43;;;;;;;6.83;81.32;101437.78;5137034;27;20466;-43
2021/04/10 10:31:09;;;;;;;17.67;8.45;;;;;;;6.90;81.89;101436.03;5137551;27;20023;-43
2021/04/10 10:33:35;;;;;;;15.00;8.20;;;;;;;6.99;81.94;101429.50;5136952;27;20027;-42
2021/04/10 10:36:01;;;;;;;16.50;8.43;;;;;;;7.01;81.69;101429.28;5137430;27;20419;-43
2021/04/10 10:38:31;;;;;;;12.57;8.10;;;;;;;7.00;81.20;101423.09;5136601;27;20132;-42
2021/04/10 10:40:57;;;;;;;17.55;9.30;;;;;;;6.95;81.64;101422.84;5137405;27;20053;-42
2021/04/10 10:43:25;;;;;;;12.77;8.98;;;;;;;6.93;80.76;101412.28;5136499;27;20027;-43
2021/04/10 10:45:53;;;;;;;14.07;9.75;;;;;;;6.79;81.57;101410.50;5136405;27;20023;-42
2021/04/10 10:48:31;;;;;;;14.90;9.68;;;;;;;6.75;82.39;101405.69;5137200;27;20015;-42
2021/04/10 10:51:11;;;;;;;15.07;9.80;;;;;;;6.79;81.61;101398.91;5136598;27;20027;-42
2021/04/10 10:53:38;;;;;;;16.63;9.00;;;;;;;6.82;83.34;101399.34;5137142;27;20030;-42
2021/04/10 10:56:28;;;;;;;14.35;8.85;;;;;;;6.85;83.20;101403.50;5137354;27;20043;-42
2021/04/10 10:59:05;;;;;;;16.13;9.93;;;;;;;6.88;83.60;101390.53;5073220;28;20047;-42
2021/04/10 11:01:34;;;;;;;;;;;;;;;7.01;82.48;101399.72;5074120;28;20127;-42
2021/04/10 11:04:08;;;;;;;17.40;10.50;;;;;;;6.81;82.78;101392.28;5073212;28;19909;-42
2021/04/10 11:06:35;;;;;;;16.33;10.80;;;;;;;6.63;82.65;101383.84;5073016;28;20040;-43
2021/04/10 11:09:03;;;;;;;14.07;10.60;;;;;;;6.67;83.10;101385.97;5072557;28;20551;-42
2021/04/10 11:11:32;;;;;;;20.63;10.68;;;;;;;6.62;82.77;101383.00;5073450;28;20158;-42
2021/04/10 11:13:59;;;;;;;18.60;11.80;;;;;;;6.51;83.27;101371.97;5073114;28;20075;-42
2021/04/10 11:16:24;;;;;;;;;;;;;;;6.59;83.31;101367.28;5073642;28;20142;-43
2021/04/10 11:18:58;;;;;;;14.73;9.35;;;;;;;6.49;84.19;101372.16;5072528;28;20318;-42
2021/04/10 11:21:26;;;;;;;16.50;11.52;;;;;;;6.36;84.42;101367.47;5072312;28;20120;-43
2021/04/10 11:23:59;;;;;;;16.52;11.25;;;;;;;6.36;84.02;101364.78;5072483;28;20068;-43
2021/04/10 11:26:53;;;;;;;19.55;11.63;;;;;;;6.42;84.48;101363.19;5072386;28;20056;-43
2021/04/10 11:29:23;;;;;;;17.77;10.98;;;;;;;6.32;84.25;101355.44;5072498;28;20029;-43
2021/04/10 11:32:11;;;;;;;20.80;11.43;;;;;;;6.42;85.16;101350.56;5072282;28;20048;-43
2021/04/10 11:34:39;;;;;;;19.15;11.30;;;;;;;6.42;84.91;101345.19;5072459;28;20041;-43
2021/04/10 11:37:06;;;;;;;16.27;10.38;;;;;;;6.52;84.70;101347.56;5133893;27;20043;-41